createdAt,value
2019-05-07T00:01:12.799Z,1015.6
2019-05-07T00:02:23.793Z,1015.59
2019-05-07T00:03:35.047Z,1015.6
2019-05-07T00:04:46.840Z,1015.58
2019-05-07T00:05:56.979Z,1015.59
2019-05-07T00:07:07.861Z,1015.6
2019-05-07T00:08:17.791Z,1015.57
2019-05-07T00:09:27.704Z,1015.6
2019-05-07T00:10:39.308Z,1015.54
2019-05-07T00:11:49.647Z,1015.53
2019-05-07T00:13:05.287Z,1015.51
2019-05-07T00:14:15.765Z,1015.48
2019-05-07T00:15:25.988Z,1015.49
2019-05-07T00:16:37.644Z,1015.48
2019-05-07T00:17:49.051Z,1015.45
2019-05-07T00:19:01.847Z,1015.45
2019-05-07T00:20:13.182Z,1015.42
2019-05-07T00:21:23.540Z,1015.38
2019-05-07T00:22:34.935Z,1015.4
2019-05-07T00:23:44.569Z,1015.42
2019-05-07T00:24:55.531Z,1015.45
2019-05-07T00:26:05.997Z,1015.41
2019-05-07T00:27:16.188Z,1015.42
2019-05-07T00:28:27.838Z,1015.38
2019-05-07T00:29:39.521Z,1015.38
2019-05-07T00:30:52.515Z,1015.4
2019-05-07T00:32:03.383Z,1015.37
2019-05-07T00:33:14.995Z,1015.34
2019-05-07T00:34:25.351Z,1015.34
2019-05-07T00:35:35.450Z,1015.32
2019-05-07T00:36:45.531Z,1015.37
2019-05-07T00:37:55.102Z,1015.36
2019-05-07T00:39:05.148Z,1015.36
2019-05-07T00:40:15.206Z,1015.32
2019-05-07T00:41:25.449Z,1015.33
2019-05-07T00:42:36.542Z,1015.32
2019-05-07T00:43:47.315Z,1015.31
2019-05-07T00:44:57.463Z,1015.3
2019-05-07T00:46:28.055Z,1015.32
2019-05-07T00:47:39.056Z,1015.3
2019-05-07T00:48:52.798Z,1015.3
2019-05-07T00:50:03.344Z,1015.33
2019-05-07T00:51:13.461Z,1015.32
2019-05-07T00:52:25.102Z,1015.34
2019-05-07T00:53:36.147Z,1015.32
2019-05-07T00:54:47.103Z,1015.31
2019-05-07T00:55:57.844Z,1015.28
2019-05-07T00:57:08.780Z,1015.26
2019-05-07T00:58:19.413Z,1015.25
2019-05-07T00:59:34.709Z,1015.26
2019-05-07T01:00:45.796Z,1015.23
2019-05-07T01:01:56.046Z,1015.23
2019-05-07T01:03:06.939Z,1015.24
2019-05-07T01:04:17.868Z,1015.21
2019-05-07T01:05:27.996Z,1015.25
2019-05-07T01:06:39.329Z,1015.24
2019-05-07T01:07:49.509Z,1015.22
2019-05-07T01:09:00.029Z,1015.26
2019-05-07T01:10:12.848Z,1015.22
2019-05-07T01:11:22.786Z,1015.2
2019-05-07T01:12:33.818Z,1015.2
2019-05-07T01:13:45.246Z,1015.15
2019-05-07T01:14:56.727Z,1015.13
2019-05-07T01:16:07.933Z,1015.16
2019-05-07T01:17:17.942Z,1015.15
2019-05-07T01:18:29.468Z,1015.19
2019-05-07T01:19:42.393Z,1015.16
2019-05-07T01:20:53.757Z,1015.17
2019-05-07T01:22:05.002Z,1015.15
2019-05-07T01:23:15.209Z,1015.19
2019-05-07T01:24:25.563Z,1015.15
2019-05-07T01:25:36.847Z,1015.15
2019-05-07T01:26:48.047Z,1015.16
2019-05-07T01:27:58.132Z,1015.14
2019-05-07T01:29:09.563Z,1015.19
2019-05-07T01:30:20.243Z,1015.17
2019-05-07T01:31:32.927Z,1015.19
2019-05-07T01:32:43.615Z,1015.16
2019-05-07T01:33:53.551Z,1015.17
2019-05-07T01:35:04.845Z,1015.15
2019-05-07T01:36:15.586Z,1015.13
2019-05-07T01:37:27.738Z,1015.15
2019-05-07T01:38:39.632Z,1015.16
2019-05-07T01:39:49.845Z,1015.17
2019-05-07T01:40:59.870Z,1015.18
2019-05-07T01:42:12.493Z,1015.21
2019-05-07T01:43:22.862Z,1015.2
2019-05-07T01:44:34.492Z,1015.19
2019-05-07T01:45:48.952Z,1015.2
2019-05-07T01:46:59.853Z,1015.17
2019-05-07T01:48:11.783Z,1015.19
2019-05-07T01:49:24.005Z,1015.2
2019-05-07T01:50:35.730Z,1015.24
2019-05-07T01:51:45.518Z,1015.22
2019-05-07T01:52:55.659Z,1015.2
2019-05-07T01:54:06.749Z,1015.21
2019-05-07T01:55:17.907Z,1015.19
2019-05-07T01:56:29.842Z,1015.18
2019-05-07T01:57:42.047Z,1015.18
2019-05-07T01:58:52.805Z,1015.19
2019-05-07T02:00:02.980Z,1015.18
2019-05-07T02:01:13.607Z,1015.18
2019-05-07T02:02:24.791Z,1015.19
2019-05-07T02:03:34.425Z,1015.19
2019-05-07T02:04:44.872Z,1015.21
2019-05-07T02:05:54.798Z,1015.21
2019-05-07T02:07:05.088Z,1015.21
2019-05-07T02:08:14.952Z,1015.18
2019-05-07T02:09:24.784Z,1015.23
2019-05-07T02:10:34.563Z,1015.23
2019-05-07T02:11:45.666Z,1015.2
2019-05-07T02:12:55.648Z,1015.17
2019-05-07T02:14:07.476Z,1015.21
2019-05-07T02:15:18.367Z,1015.21
2019-05-07T02:16:29.735Z,1015.19
2019-05-07T02:17:42.958Z,1015.18
2019-05-07T02:18:53.097Z,1015.18
2019-05-07T02:20:04.654Z,1015.17
2019-05-07T02:21:15.980Z,1015.15
2019-05-07T02:22:27.067Z,1015.16
2019-05-07T02:23:36.825Z,1015.13
2019-05-07T02:24:47.605Z,1015.12
2019-05-07T02:25:57.394Z,1015.12
2019-05-07T02:27:06.933Z,1015.11
2019-05-07T02:28:17.126Z,1015.12
2019-05-07T02:29:27.013Z,1015.15
2019-05-07T02:30:38.526Z,1015.12
2019-05-07T02:31:54.016Z,1015.13
2019-05-07T02:33:07.409Z,1015.14
2019-05-07T02:34:19.176Z,1015.08
2019-05-07T02:35:33.023Z,1015.11
2019-05-07T02:36:44.409Z,1015.09
2019-05-07T02:37:57.050Z,1015.09
2019-05-07T02:39:14.095Z,1015.07
2019-05-07T02:40:26.607Z,1015.08
2019-05-07T02:41:39.033Z,1015.07
2019-05-07T02:42:54.488Z,1015.06
2019-05-07T02:44:05.824Z,1015.02
2019-05-07T02:45:18.729Z,1015.03
2019-05-07T02:46:36.149Z,1015.04
2019-05-07T02:47:48.435Z,1015.04
2019-05-07T02:49:02.842Z,1015.04
2019-05-07T02:50:14.807Z,1015.01
2019-05-07T02:51:25.704Z,1015.03
2019-05-07T02:52:38.256Z,1015.04
2019-05-07T02:53:54.317Z,1015
2019-05-07T02:55:06.578Z,1015.01
2019-05-07T02:56:18.722Z,1015.05
2019-05-07T02:57:34.395Z,1015.02
2019-05-07T02:58:46.160Z,1015.05
2019-05-07T02:59:57.778Z,1015
2019-05-07T03:01:14.579Z,1015.01
2019-05-07T03:02:25.577Z,1014.99
2019-05-07T03:03:38.113Z,1014.99
2019-05-07T03:04:53.505Z,1015
2019-05-07T03:06:05.580Z,1015.01
2019-05-07T03:07:16.528Z,1015.02
2019-05-07T03:08:28.771Z,1015.03
2019-05-07T03:09:44.245Z,1015.04
2019-05-07T03:10:56.534Z,1015.03
2019-05-07T03:12:08.336Z,1014.99
2019-05-07T03:13:23.503Z,1015.04
2019-05-07T03:14:36.398Z,1015.03
2019-05-07T03:15:48.924Z,1015.07
2019-05-07T03:17:04.113Z,1015.02
2019-05-07T03:18:18.889Z,1015.02
2019-05-07T03:19:33.747Z,1015.02
2019-05-07T03:20:45.978Z,1015.02
2019-05-07T03:21:58.456Z,1014.98
2019-05-07T03:23:14.266Z,1014.95
2019-05-07T03:24:25.251Z,1014.95
2019-05-07T03:25:36.987Z,1014.95
2019-05-07T03:26:48.123Z,1014.94
2019-05-07T03:28:04.424Z,1014.96
2019-05-07T03:29:16.483Z,1014.96
2019-05-07T03:30:28.779Z,1014.99
2019-05-07T03:31:47.959Z,1015
2019-05-07T03:33:08.931Z,1015.01
2019-05-07T03:34:28.729Z,1014.99
2019-05-07T03:35:55.408Z,1014.98
2019-05-07T03:37:16.926Z,1014.97
2019-05-07T03:38:33.871Z,1014.99
2019-05-07T03:39:46.674Z,1014.98
2019-05-07T03:40:58.706Z,1014.97
2019-05-07T03:42:13.650Z,1015
2019-05-07T03:43:24.152Z,1015
2019-05-07T03:44:35.454Z,1014.99
2019-05-07T03:45:47.327Z,1015.01
2019-05-07T03:47:03.040Z,1015
2019-05-07T03:48:19.152Z,1014.96
2019-05-07T03:49:34.416Z,1014.92
2019-05-07T03:50:45.896Z,1014.95
2019-05-07T03:51:58.190Z,1014.99
2019-05-07T03:53:14.581Z,1014.98
2019-05-07T03:54:27.942Z,1014.98
2019-05-07T03:55:44.517Z,1015.01
2019-05-07T03:56:56.590Z,1014.96
2019-05-07T03:58:19.136Z,1014.97
2019-05-07T03:59:34.521Z,1014.94
2019-05-07T04:00:46.116Z,1014.93
2019-05-07T04:01:58.951Z,1014.93
2019-05-07T04:03:18.923Z,1014.94
2019-05-07T04:04:34.850Z,1014.94
2019-05-07T04:05:45.960Z,1014.93
2019-05-07T04:06:58.249Z,1014.93
2019-05-07T04:08:13.857Z,1014.94
2019-05-07T04:09:26.709Z,1014.96
2019-05-07T04:10:38.488Z,1014.95
2019-05-07T04:11:54.361Z,1014.95
2019-05-07T04:13:06.879Z,1014.95
2019-05-07T04:14:18.733Z,1014.99
2019-05-07T04:15:32.924Z,1014.96
2019-05-07T04:16:46.435Z,1015.01
2019-05-07T04:18:24.074Z,1014.99
2019-05-07T04:19:35.916Z,1014.94
2019-05-07T04:20:49.138Z,1014.95
2019-05-07T04:22:04.519Z,1014.96
2019-05-07T04:23:15.725Z,1014.97
2019-05-07T04:24:28.396Z,1014.94
2019-05-07T04:25:43.609Z,1014.96
2019-05-07T04:26:55.950Z,1014.97
2019-05-07T04:28:08.468Z,1014.98
2019-05-07T04:29:24.191Z,1014.96
2019-05-07T04:30:37.952Z,1014.96
2019-05-07T04:31:48.644Z,1014.96
2019-05-07T04:33:03.722Z,1014.95
2019-05-07T04:34:15.772Z,1014.94
2019-05-07T04:35:28.723Z,1014.96
2019-05-07T04:36:43.970Z,1014.93
2019-05-07T04:37:56.388Z,1014.92
2019-05-07T04:39:14.299Z,1014.96
2019-05-07T04:40:26.153Z,1014.91
2019-05-07T04:41:38.623Z,1014.9
2019-05-07T04:42:54.039Z,1014.93
2019-05-07T04:44:05.159Z,1014.94
2019-05-07T04:45:16.865Z,1014.92
2019-05-07T04:46:27.999Z,1014.9
2019-05-07T04:47:48.047Z,1014.92
2019-05-07T04:49:04.141Z,1014.93
2019-05-07T04:50:32.800Z,1014.94
2019-05-07T04:51:54.694Z,1014.91
2019-05-07T04:53:06.971Z,1014.91
2019-05-07T04:54:19.195Z,1014.91
2019-05-07T04:55:33.731Z,1014.89
2019-05-07T04:56:45.456Z,1014.9
2019-05-07T04:57:57.766Z,1014.88
2019-05-07T04:59:16.697Z,1014.88
2019-05-07T05:00:28.567Z,1014.9
2019-05-07T05:01:43.786Z,1014.9
2019-05-07T05:02:56.046Z,1014.91
2019-05-07T05:04:21.870Z,1014.91
2019-05-07T05:05:44.270Z,1014.91
2019-05-07T05:06:56.033Z,1014.94
2019-05-07T05:08:07.363Z,1014.96
2019-05-07T05:09:18.791Z,1014.94
2019-05-07T05:10:33.859Z,1014.93
2019-05-07T05:11:46.047Z,1014.9
2019-05-07T05:12:58.306Z,1014.89
2019-05-07T05:14:13.845Z,1014.91
2019-05-07T05:15:25.696Z,1014.89
2019-05-07T05:16:36.998Z,1014.92
2019-05-07T05:17:50.814Z,1014.92
2019-05-07T05:19:05.190Z,1014.93
2019-05-07T05:20:15.255Z,1014.93
2019-05-07T05:21:27.352Z,1014.96
2019-05-07T05:22:37.269Z,1014.93
2019-05-07T05:23:47.043Z,1014.95
2019-05-07T05:24:57.315Z,1014.97
2019-05-07T05:26:07.716Z,1014.97
2019-05-07T05:27:17.041Z,1014.98
2019-05-07T05:28:32.313Z,1014.98
2019-05-07T05:29:43.016Z,1014.96
2019-05-07T05:30:54.577Z,1014.93
2019-05-07T05:32:05.948Z,1014.95
2019-05-07T05:33:16.696Z,1014.97
2019-05-07T05:34:28.095Z,1014.94
2019-05-07T05:35:39.965Z,1014.97
2019-05-07T05:36:53.312Z,1014.95
2019-05-07T05:38:03.129Z,1014.95
2019-05-07T05:39:15.421Z,1014.99
2019-05-07T05:40:25.129Z,1014.99
2019-05-07T05:41:37.789Z,1014.97
2019-05-07T05:42:49.515Z,1014.99
2019-05-07T05:43:59.324Z,1014.95
2019-05-07T05:45:12.430Z,1014.94
2019-05-07T05:46:24.685Z,1014.97
2019-05-07T05:47:34.556Z,1014.98
2019-05-07T05:49:04.508Z,1014.93
2019-05-07T05:50:14.977Z,1014.91
2019-05-07T05:51:26.519Z,1014.92
2019-05-07T05:52:37.481Z,1014.9
2019-05-07T05:53:46.983Z,1014.92
2019-05-07T05:54:57.177Z,1014.9
2019-05-07T05:56:07.274Z,1014.9
2019-05-07T05:57:19.429Z,1014.91
2019-05-07T05:58:32.721Z,1014.92
2019-05-07T05:59:48.690Z,1014.89
2019-05-07T06:01:05.098Z,1014.89
2019-05-07T06:02:15.964Z,1014.87
2019-05-07T06:03:28.052Z,1014.89
2019-05-07T06:04:41.847Z,1014.89
2019-05-07T06:05:53.331Z,1014.92
2019-05-07T06:07:10.738Z,1014.92
2019-05-07T06:08:23.969Z,1014.9
2019-05-07T06:09:35.439Z,1014.84
2019-05-07T06:10:47.127Z,1014.88
2019-05-07T06:11:59.475Z,1014.86
2019-05-07T06:13:12.196Z,1014.88
2019-05-07T06:14:23.302Z,1014.83
2019-05-07T06:15:33.547Z,1014.84
2019-05-07T06:17:03.497Z,1014.86
2019-05-07T06:18:20.604Z,1014.88
2019-05-07T06:19:33.185Z,1014.86
2019-05-07T06:20:42.963Z,1014.88
2019-05-07T06:21:52.761Z,1014.88
2019-05-07T06:23:02.638Z,1014.91
2019-05-07T06:24:13.363Z,1014.89
2019-05-07T06:25:24.567Z,1014.89
2019-05-07T06:26:38.055Z,1014.93
2019-05-07T06:27:49.360Z,1014.96
2019-05-07T06:29:02.470Z,1014.94
2019-05-07T06:30:12.428Z,1014.93
2019-05-07T06:31:23.227Z,1014.89
2019-05-07T06:32:33.150Z,1014.96
2019-05-07T06:33:43.465Z,1014.94
2019-05-07T06:34:55.206Z,1014.97
2019-05-07T06:36:05.753Z,1014.95
2019-05-07T06:37:17.842Z,1014.92
2019-05-07T06:38:32.577Z,1014.93
2019-05-07T06:39:43.151Z,1015
2019-05-07T06:40:53.452Z,1015.01
2019-05-07T06:42:05.219Z,1015.02
2019-05-07T06:43:17.474Z,1015.01
2019-05-07T06:44:31.792Z,1015.02
2019-05-07T06:45:43.437Z,1014.98
2019-05-07T06:46:54.821Z,1015
2019-05-07T06:48:04.829Z,1015.04
2019-05-07T06:49:15.270Z,1015.01
2019-05-07T06:50:27.417Z,1015.01
2019-05-07T06:51:37.955Z,1014.96
2019-05-07T06:52:53.180Z,1014.99
2019-05-07T06:54:02.993Z,1014.93
2019-05-07T06:55:13.487Z,1014.96
2019-05-07T06:56:23.403Z,1014.95
2019-05-07T06:57:35.084Z,1014.93
2019-05-07T06:58:45.411Z,1014.91
2019-05-07T06:59:55.334Z,1014.93
2019-05-07T07:01:05.355Z,1014.94
2019-05-07T07:02:16.830Z,1014.91
2019-05-07T07:03:27.841Z,1014.92
2019-05-07T07:04:38.036Z,1014.9
2019-05-07T07:05:51.295Z,1014.91
2019-05-07T07:07:03.252Z,1014.89
2019-05-07T07:08:35.167Z,1014.89
2019-05-07T07:09:46.373Z,1014.87
2019-05-07T07:10:56.669Z,1014.88
2019-05-07T07:12:07.642Z,1014.84
2019-05-07T07:13:17.911Z,1014.83
2019-05-07T07:14:27.662Z,1014.82
2019-05-07T07:15:38.426Z,1014.81
2019-05-07T07:16:49.749Z,1014.81
2019-05-07T07:18:00.028Z,1014.84
2019-05-07T07:19:12.651Z,1014.82
2019-05-07T07:20:23.801Z,1014.77
2019-05-07T07:21:35.247Z,1014.8
2019-05-07T07:22:44.800Z,1014.75
2019-05-07T07:23:54.669Z,1014.74
2019-05-07T07:25:06.638Z,1014.72
2019-05-07T07:26:16.645Z,1014.74
2019-05-07T07:27:26.583Z,1014.7
2019-05-07T07:28:36.920Z,1014.69
2019-05-07T07:29:47.680Z,1014.68
2019-05-07T07:30:57.314Z,1014.68
2019-05-07T07:32:07.574Z,1014.66
2019-05-07T07:33:17.259Z,1014.67
2019-05-07T07:34:27.198Z,1014.65
2019-05-07T07:35:37.750Z,1014.68
2019-05-07T07:37:01.724Z,1014.66
2019-05-07T07:38:23.298Z,1014.63
2019-05-07T07:39:33.439Z,1014.63
2019-05-07T07:40:45.823Z,1014.61
2019-05-07T07:41:57.926Z,1014.61
2019-05-07T07:43:07.985Z,1014.66
2019-05-07T07:44:22.380Z,1014.6
2019-05-07T07:45:33.487Z,1014.62
2019-05-07T07:46:44.442Z,1014.6
2019-05-07T07:47:55.489Z,1014.62
2019-05-07T07:49:11.208Z,1014.6
2019-05-07T07:50:24.914Z,1014.6
2019-05-07T07:51:40.920Z,1014.64
2019-05-07T07:52:55.095Z,1014.59
2019-05-07T07:54:05.241Z,1014.65
2019-05-07T07:55:16.148Z,1014.65
2019-05-07T07:56:26.756Z,1014.63
2019-05-07T07:57:58.523Z,1014.62
2019-05-07T07:59:12.690Z,1014.59
2019-05-07T08:00:26.105Z,1014.62
2019-05-07T08:01:37.712Z,1014.61
2019-05-07T08:02:49.025Z,1014.61
2019-05-07T08:04:02.903Z,1014.61
2019-05-07T08:05:14.927Z,1014.62
2019-05-07T08:06:26.565Z,1014.61
2019-05-07T08:07:37.429Z,1014.59
2019-05-07T08:08:47.883Z,1014.6
2019-05-07T08:09:57.739Z,1014.59
2019-05-07T08:11:07.597Z,1014.59
2019-05-07T08:12:17.722Z,1014.58
2019-05-07T08:13:29.447Z,1014.62
2019-05-07T08:14:39.835Z,1014.62
2019-05-07T08:15:52.443Z,1014.53
2019-05-07T08:17:02.999Z,1014.59
2019-05-07T08:18:13.602Z,1014.62
2019-05-07T08:19:25.229Z,1014.58
2019-05-07T08:20:37.705Z,1014.59
2019-05-07T08:21:47.531Z,1014.6
2019-05-07T08:22:57.134Z,1014.6
2019-05-07T08:24:07.955Z,1014.57
2019-05-07T08:25:21.800Z,1014.55
2019-05-07T08:26:32.760Z,1014.56
2019-05-07T08:27:43.363Z,1014.55
2019-05-07T08:28:58.391Z,1014.55
2019-05-07T08:30:12.359Z,1014.52
2019-05-07T08:31:22.739Z,1014.5
2019-05-07T08:32:32.743Z,1014.52
2019-05-07T08:33:42.870Z,1014.49
2019-05-07T08:34:54.399Z,1014.47
2019-05-07T08:36:05.191Z,1014.48
2019-05-07T08:37:19.290Z,1014.48
2019-05-07T08:38:32.769Z,1014.47
2019-05-07T08:39:43.073Z,1014.45
2019-05-07T08:40:54.874Z,1014.41
2019-05-07T08:42:05.605Z,1014.43
2019-05-07T08:43:17.160Z,1014.43
2019-05-07T08:44:26.644Z,1014.43
2019-05-07T08:45:37.756Z,1014.43
2019-05-07T08:46:48.462Z,1014.43
2019-05-07T08:47:59.228Z,1014.42
2019-05-07T08:49:09.233Z,1014.41
2019-05-07T08:50:33.470Z,1014.4
2019-05-07T08:51:44.512Z,1014.4
2019-05-07T08:52:54.552Z,1014.38
2019-05-07T08:54:05.155Z,1014.38
2019-05-07T08:55:14.956Z,1014.34
2019-05-07T08:56:26.956Z,1014.36
2019-05-07T08:57:36.383Z,1014.38
2019-05-07T08:58:48.302Z,1014.36
2019-05-07T09:00:04.641Z,1014.36
2019-05-07T09:01:14.999Z,1014.34
2019-05-07T09:02:26.750Z,1014.34
2019-05-07T09:03:37.599Z,1014.34
2019-05-07T09:04:48.081Z,1014.29
2019-05-07T09:05:59.530Z,1014.29
2019-05-07T09:07:12.976Z,1014.29
2019-05-07T09:08:24.377Z,1014.23
2019-05-07T09:09:34.701Z,1014.25
2019-05-07T09:10:45.610Z,1014.19
2019-05-07T09:11:55.118Z,1014.24
2019-05-07T09:13:05.812Z,1014.17
2019-05-07T09:14:15.464Z,1014.17
2019-05-07T09:15:28.542Z,1014.14
2019-05-07T09:16:39.485Z,1014.15
2019-05-07T09:17:50.159Z,1014.11
2019-05-07T09:19:02.225Z,1014.16
2019-05-07T09:20:13.193Z,1014.11
2019-05-07T09:21:23.356Z,1014.12
2019-05-07T09:22:34.832Z,1014.09
2019-05-07T09:23:45.366Z,1014.08
2019-05-07T09:24:54.901Z,1014.05
2019-05-07T09:26:05.706Z,1014.05
2019-05-07T09:27:15.728Z,1014.05
2019-05-07T09:28:27.349Z,1014.07
2019-05-07T09:29:37.890Z,1014.02
2019-05-07T09:30:47.628Z,1014.03
2019-05-07T09:31:57.744Z,1014.02
2019-05-07T09:33:07.809Z,1014.01
2019-05-07T09:34:19.504Z,1014.05
2019-05-07T09:35:29.438Z,1014.01
2019-05-07T09:36:42.906Z,1013.94
2019-05-07T09:37:54.451Z,1013.94
2019-05-07T09:39:05.817Z,1013.94
2019-05-07T09:40:17.355Z,1013.89
2019-05-07T09:41:29.059Z,1013.89
2019-05-07T09:42:39.612Z,1013.88
2019-05-07T09:43:49.363Z,1013.9
2019-05-07T09:44:59.270Z,1013.87
2019-05-07T09:46:09.625Z,1013.83
2019-05-07T09:47:23.014Z,1013.84
2019-05-07T09:48:33.764Z,1013.92
2019-05-07T09:49:44.307Z,1013.93
2019-05-07T09:51:12.394Z,1013.92
2019-05-07T09:52:23.120Z,1013.91
2019-05-07T09:53:34.874Z,1013.84
2019-05-07T09:54:45.083Z,1013.9
2019-05-07T09:55:56.804Z,1013.85
2019-05-07T09:57:07.156Z,1013.8
2019-05-07T09:58:39.241Z,1013.86
2019-05-07T09:59:49.769Z,1013.88
2019-05-07T10:01:02.636Z,1013.83
2019-05-07T10:02:13.050Z,1013.82
2019-05-07T10:03:22.966Z,1013.83
2019-05-07T10:04:32.992Z,1013.86
2019-05-07T10:05:44.347Z,1013.84
2019-05-07T10:06:54.206Z,1013.86
2019-05-07T10:08:05.430Z,1013.87
2019-05-07T10:09:15.545Z,1013.81
2019-05-07T10:10:26.976Z,1013.86
2019-05-07T10:11:37.932Z,1013.84
2019-05-07T10:12:46.969Z,1013.84
2019-05-07T10:13:57.552Z,1013.82
2019-05-07T10:15:09.514Z,1013.81
2019-05-07T10:16:19.758Z,1013.79
2019-05-07T10:17:29.484Z,1013.76
2019-05-07T10:18:39.906Z,1013.77
2019-05-07T10:19:52.448Z,1013.72
2019-05-07T10:21:07.613Z,1013.71
2019-05-07T10:22:17.732Z,1013.73
2019-05-07T10:23:28.002Z,1013.69
2019-05-07T10:24:37.263Z,1013.7
2019-05-07T10:25:48.678Z,1013.71
2019-05-07T10:26:57.860Z,1013.76
2019-05-07T10:28:09.299Z,1013.76
2019-05-07T10:29:19.401Z,1013.73
2019-05-07T10:30:32.699Z,1013.74
2019-05-07T10:31:43.304Z,1013.74
2019-05-07T10:32:53.291Z,1013.71
2019-05-07T10:34:04.397Z,1013.67
2019-05-07T10:35:15.017Z,1013.69
2019-05-07T10:36:25.779Z,1013.69
2019-05-07T10:37:37.050Z,1013.65
2019-05-07T10:38:47.297Z,1013.62
2019-05-07T10:39:57.035Z,1013.58
2019-05-07T10:41:08.121Z,1013.6
2019-05-07T10:42:19.528Z,1013.58
2019-05-07T10:43:29.804Z,1013.6
2019-05-07T10:44:39.955Z,1013.57
2019-05-07T10:45:52.008Z,1013.58
2019-05-07T10:47:02.862Z,1013.56
2019-05-07T10:48:12.663Z,1013.55
2019-05-07T10:49:22.680Z,1013.52
2019-05-07T10:50:38.180Z,1013.54
2019-05-07T10:51:51.673Z,1013.54
2019-05-07T10:53:02.651Z,1013.53
2019-05-07T10:54:13.061Z,1013.51
2019-05-07T10:55:24.151Z,1013.48
2019-05-07T10:56:35.528Z,1013.47
2019-05-07T10:57:46.841Z,1013.46
2019-05-07T10:58:57.377Z,1013.5
2019-05-07T11:00:07.919Z,1013.46
2019-05-07T11:01:19.671Z,1013.46
2019-05-07T11:02:29.805Z,1013.45
2019-05-07T11:03:43.072Z,1013.41
2019-05-07T11:04:54.289Z,1013.4
2019-05-07T11:06:04.962Z,1013.41
2019-05-07T11:07:14.884Z,1013.36
2019-05-07T11:08:25.751Z,1013.36
2019-05-07T11:09:37.793Z,1013.32
2019-05-07T11:10:48.816Z,1013.34
2019-05-07T11:11:59.564Z,1013.28
2019-05-07T11:13:09.946Z,1013.28
2019-05-07T11:14:22.365Z,1013.27
2019-05-07T11:15:32.948Z,1013.22
2019-05-07T11:16:43.425Z,1013.23
2019-05-07T11:17:54.934Z,1013.2
2019-05-07T11:19:05.563Z,1013.21
2019-05-07T11:20:19.276Z,1013.19
2019-05-07T11:21:29.731Z,1013.19
2019-05-07T11:22:42.852Z,1013.14
2019-05-07T11:23:54.710Z,1013.11
2019-05-07T11:25:05.943Z,1013.13
2019-05-07T11:26:17.048Z,1013.09
2019-05-07T11:27:26.903Z,1013.09
2019-05-07T11:28:38.044Z,1013.06
2019-05-07T11:29:47.232Z,1013.09
2019-05-07T11:30:56.687Z,1013.07
2019-05-07T11:32:06.882Z,1013.09
2019-05-07T11:33:17.073Z,1013.08
2019-05-07T11:34:26.763Z,1013.07
2019-05-07T11:35:38.026Z,1013.07
2019-05-07T11:36:50.493Z,1013.06
2019-05-07T11:38:16.865Z,1013.05
2019-05-07T11:39:33.707Z,1013.03
2019-05-07T11:40:43.227Z,1013.02
2019-05-07T11:41:54.404Z,1013.03
2019-05-07T11:43:04.945Z,1013.03
2019-05-07T11:44:15.931Z,1013.05
2019-05-07T11:45:25.918Z,1013.02
2019-05-07T11:46:37.059Z,1013.05
2019-05-07T11:47:49.214Z,1013.02
2019-05-07T11:48:58.423Z,1013.05
2019-05-07T11:50:07.351Z,1013.03
2019-05-07T11:51:23.150Z,1013.01
2019-05-07T11:52:35.814Z,1013.01
2019-05-07T11:53:47.483Z,1012.97
2019-05-07T11:54:57.404Z,1012.98
2019-05-07T11:56:08.114Z,1012.94
2019-05-07T11:57:19.125Z,1012.91
2019-05-07T11:58:29.227Z,1012.9
2019-05-07T11:59:41.751Z,1012.89
2019-05-07T12:00:54.719Z,1012.89
2019-05-07T12:02:06.566Z,1012.92
2019-05-07T12:03:17.085Z,1012.9
2019-05-07T12:04:27.928Z,1012.88
2019-05-07T12:05:38.662Z,1012.9
2019-05-07T12:06:49.445Z,1012.88
2019-05-07T12:07:59.232Z,1012.87
2019-05-07T12:09:09.262Z,1012.84
2019-05-07T12:10:19.106Z,1012.86
2019-05-07T12:11:29.374Z,1012.84
2019-05-07T12:12:39.095Z,1012.82
2019-05-07T12:13:48.286Z,1012.78
2019-05-07T12:15:04.635Z,1012.79
2019-05-07T12:16:15.126Z,1012.77
2019-05-07T12:17:24.973Z,1012.77
2019-05-07T12:18:36.334Z,1012.78
2019-05-07T12:19:47.796Z,1012.77
2019-05-07T12:20:57.670Z,1012.74
2019-05-07T12:22:26.901Z,1012.74
2019-05-07T12:23:36.082Z,1012.69
2019-05-07T12:24:47.269Z,1012.7
2019-05-07T12:25:57.153Z,1012.66
2019-05-07T12:27:07.088Z,1012.65
2019-05-07T12:28:17.175Z,1012.63
2019-05-07T12:29:27.296Z,1012.64
2019-05-07T12:30:37.264Z,1012.62
2019-05-07T12:31:47.822Z,1012.61
2019-05-07T12:33:03.076Z,1012.62
2019-05-07T12:34:14.607Z,1012.6
2019-05-07T12:35:25.514Z,1012.58
2019-05-07T12:36:34.949Z,1012.58
2019-05-07T12:37:45.851Z,1012.57
2019-05-07T12:38:56.832Z,1012.57
2019-05-07T12:40:07.565Z,1012.54
2019-05-07T12:41:19.250Z,1012.53
2019-05-07T12:42:28.922Z,1012.55
2019-05-07T12:43:41.933Z,1012.51
2019-05-07T12:44:52.469Z,1012.5
2019-05-07T12:46:02.868Z,1012.47
2019-05-07T12:47:14.706Z,1012.42
2019-05-07T12:48:25.383Z,1012.41
2019-05-07T12:49:34.313Z,1012.41
2019-05-07T12:50:45.512Z,1012.39
2019-05-07T12:51:57.414Z,1012.41
2019-05-07T12:53:07.162Z,1012.38
2019-05-07T12:54:17.317Z,1012.4
2019-05-07T12:55:27.699Z,1012.36
2019-05-07T12:56:37.405Z,1012.38
2019-05-07T12:57:47.373Z,1012.35
2019-05-07T12:58:58.955Z,1012.35
2019-05-07T13:00:09.329Z,1012.37
2019-05-07T13:01:19.597Z,1012.32
2019-05-07T13:02:37.853Z,1012.34
2019-05-07T13:03:52.617Z,1012.3
2019-05-07T13:05:03.144Z,1012.28
2019-05-07T13:06:14.499Z,1012.26
2019-05-07T13:07:24.671Z,1012.27
2019-05-07T13:08:35.118Z,1012.26
2019-05-07T13:09:44.874Z,1012.25
2019-05-07T13:10:54.567Z,1012.26
2019-05-07T13:12:05.982Z,1012.23
2019-05-07T13:13:15.651Z,1012.26
2019-05-07T13:14:25.327Z,1012.25
2019-05-07T13:15:34.778Z,1012.22
2019-05-07T13:16:45.635Z,1012.2
2019-05-07T13:17:57.393Z,1012.18
2019-05-07T13:19:07.775Z,1012.2
2019-05-07T13:20:18.458Z,1012.17
2019-05-07T13:21:45.842Z,1012.19
2019-05-07T13:22:57.327Z,1012.18
2019-05-07T13:24:06.531Z,1012.18
2019-05-07T13:25:17.612Z,1012.17
2019-05-07T13:26:35.038Z,1012.14
2019-05-07T13:27:45.613Z,1012.15
2019-05-07T13:28:56.847Z,1012.15
2019-05-07T13:30:07.856Z,1012.09
2019-05-07T13:31:18.924Z,1012.09
2019-05-07T13:32:33.257Z,1012.07
2019-05-07T13:33:48.339Z,1012.04
2019-05-07T13:34:59.791Z,1012.05
2019-05-07T13:36:09.875Z,1012.03
2019-05-07T13:37:19.478Z,1012
2019-05-07T13:38:29.441Z,1012.02
2019-05-07T13:39:39.845Z,1011.99
2019-05-07T13:40:52.738Z,1011.97
2019-05-07T13:42:04.785Z,1011.94
2019-05-07T13:43:15.522Z,1011.88
2019-05-07T13:44:25.431Z,1011.87
2019-05-07T13:45:37.055Z,1011.85
2019-05-07T13:46:53.610Z,1011.87
2019-05-07T13:48:04.907Z,1011.84
2019-05-07T13:49:16.780Z,1011.87
2019-05-07T13:50:27.043Z,1011.85
2019-05-07T13:51:37.548Z,1011.85
2019-05-07T13:53:03.688Z,1011.83
2019-05-07T13:54:14.734Z,1011.81
2019-05-07T13:55:26.495Z,1011.82
2019-05-07T13:56:37.128Z,1011.8
2019-05-07T13:57:46.963Z,1011.78
2019-05-07T13:58:57.418Z,1011.76
2019-05-07T14:00:09.612Z,1011.7
2019-05-07T14:01:22.941Z,1011.71
2019-05-07T14:02:33.318Z,1011.72
2019-05-07T14:03:44.977Z,1011.74
2019-05-07T14:04:54.184Z,1011.69
2019-05-07T14:06:04.535Z,1011.69
2019-05-07T14:07:17.119Z,1011.73
2019-05-07T14:08:29.061Z,1011.68
2019-05-07T14:09:39.161Z,1011.67
2019-05-07T14:10:48.975Z,1011.65
2019-05-07T14:11:59.132Z,1011.61
2019-05-07T14:13:14.902Z,1011.63
2019-05-07T14:14:26.982Z,1011.63
2019-05-07T14:15:39.597Z,1011.64
2019-05-07T14:16:52.948Z,1011.65
2019-05-07T14:18:05.118Z,1011.6
2019-05-07T14:19:16.268Z,1011.59
2019-05-07T14:20:27.495Z,1011.56
2019-05-07T14:21:38.047Z,1011.58
2019-05-07T14:22:48.834Z,1011.55
2019-05-07T14:23:58.319Z,1011.55
2019-05-07T14:25:07.504Z,1011.51
2019-05-07T14:26:16.945Z,1011.56
2019-05-07T14:27:28.996Z,1011.52
2019-05-07T14:28:42.119Z,1011.5
2019-05-07T14:29:52.749Z,1011.5
2019-05-07T14:31:03.244Z,1011.48
2019-05-07T14:32:14.873Z,1011.48
2019-05-07T14:33:24.080Z,1011.45
2019-05-07T14:34:34.970Z,1011.47
2019-05-07T14:35:44.627Z,1011.47